Enter the Airport ICAO Code

Search by Airport or City

Current Weather

EBBR | Brussels Airport (Zaventem Airport)

Brussels, Belgium

Last Update 36 Minutes Ago

Clear Sky

Temperature of 21 ºC

Moderate Winds from NorthEast

Temperature

21 ºC

Dew Point Temperature

05 ºC

Relative Humidity

35.27 %

Wind Direction

NorthEast (050º, Without Significant Variations)

Wind Velocity

19 km/h (10 kt)

Gusts

None

Visibility

No Significant Reductions

Sea Level Pressure

1020 hPa (Hectopascals)

Layers of Clouds

None

METAR EBBR 031320Z 05010KT CAVOK 21/05 Q1020 NOSIG

Weather Forecast

EBBR | Brussels Airport (Zaventem Airport)

Brussels, Belgium

Forecast valid for the next 28 Hours

From now on it is expected:

Clear Sky

Moderate Winds from NorthEast

Maximum Temperature

No Data

Minimum Temperature

No Data

TAF EBBR 031117Z 0312/0418 05010KT CAVOK